Time;durP1;ratioP1;P1;durP2;ratioP2;P2;SDS_P1;SDS_P2;PMS_P1;PMS_P2;Temp;Humidity;BMP_temperature;BMP_pressure;BME280_temperature;BME280_humidity;BME280_pressure;Samples;Min_cycle;Max_cycle;Signal;HPM_P1;HPM_P2
2023/12/27 00:01:23;;;;;;;5.78;2.90;;;;;9.90;99069.00;;;;5033871;28;20421;-63
2023/12/27 00:03:49;;;;;;;7.03;4.18;;;;;9.90;99079.00;;;;5033832;28;20080;-62
2023/12/27 00:06:16;;;;;;;7.07;4.40;;;;;9.90;99071.00;;;;5034437;28;20068;-62
2023/12/27 00:08:43;;;;;;;10.02;7.05;;;;;9.90;99068.00;;;;5034381;28;20045;-63
2023/12/27 00:11:10;;;;;;;4.47;2.88;;;;;9.90;99058.00;;;;5034340;28;20099;-62
2023/12/27 00:13:36;;;;;;;3.78;2.60;;;;;10.00;99072.00;;;;5033673;28;20095;-61
2023/12/27 00:16:03;;;;;;;3.80;2.45;;;;;9.90;99052.00;;;;5034205;28;20167;-62
2023/12/27 00:18:30;;;;;;;6.28;3.30;;;;;9.90;99060.00;;;;5034062;28;20049;-62
2023/12/27 00:20:56;;;;;;;4.95;3.25;;;;;9.90;99053.00;;;;5033938;28;20092;-62
2023/12/27 00:23:23;;;;;;;7.13;4.03;;;;;9.90;99039.00;;;;5033998;28;20060;-62
2023/12/27 00:25:50;;;;;;;4.40;3.92;;;;;10.00;99033.00;;;;5033883;28;20084;-63
2023/12/27 00:28:16;;;;;;;4.60;3.75;;;;;10.00;99058.00;;;;5034150;28;20041;-62
2023/12/27 00:30:43;;;;;;;7.07;3.90;;;;;10.00;99063.00;;;;5034391;28;20041;-62
2023/12/27 00:33:09;;;;;;;4.22;3.83;;;;;10.00;99068.00;;;;5034668;28;20115;-61
2023/12/27 00:35:36;;;;;;;5.85;4.05;;;;;10.00;99072.00;;;;5033636;28;20052;-61
2023/12/27 00:38:03;;;;;;;10.30;5.63;;;;;9.90;99077.00;;;;5032804;28;20072;-62
2023/12/27 00:40:30;;;;;;;7.50;3.78;;;;;9.90;99074.00;;;;5032748;28;20060;-61
2023/12/27 00:42:56;;;;;;;8.23;4.15;;;;;9.90;99065.00;;;;5032867;28;20068;-62
2023/12/27 00:45:23;;;;;;;7.97;4.10;;;;;9.90;99066.00;;;;5033265;28;20038;-61
2023/12/27 00:47:50;;;;;;;6.35;4.55;;;;;9.90;99062.00;;;;5032600;28;20053;-61
2023/12/27 00:50:19;;;;;;;10.00;6.30;;;;;10.00;99067.00;;;;5033926;28;20033;-61
2023/12/27 00:52:45;;;;;;;12.50;5.28;;;;;10.00;99071.00;;;;5033972;28;20099;-62
2023/12/27 00:55:12;;;;;;;7.15;4.47;;;;;10.00;99078.00;;;;5033201;28;20049;-61
2023/12/27 00:57:38;;;;;;;8.43;4.88;;;;;10.00;99079.00;;;;5032580;28;20556;-61
2023/12/27 01:00:07;;;;;;;7.40;5.13;;;;;10.00;99076.00;;;;5033669;28;20129;-61
2023/12/27 01:02:35;;;;;;;6.78;4.38;;;;;9.90;99092.00;;;;5032275;28;20049;-61
2023/12/27 01:05:02;;;;;;;7.97;4.90;;;;;10.00;99084.00;;;;5031862;28;20048;-65
2023/12/27 01:07:28;;;;;;;6.93;3.65;;;;;9.90;99079.00;;;;5032108;28;20052;-61
2023/12/27 01:09:55;;;;;;;6.68;4.10;;;;;9.90;99084.00;;;;5032424;28;20049;-63
2023/12/27 01:12:21;;;;;;;9.85;5.13;;;;;10.00;99080.00;;;;5015242;28;20049;-63
2023/12/27 01:14:48;;;;;;;9.32;5.43;;;;;10.00;99081.00;;;;5032715;28;20046;-62
2023/12/27 01:17:15;;;;;;;10.88;5.95;;;;;10.00;99085.00;;;;5033248;28;20038;-62
2023/12/27 01:19:42;;;;;;;9.68;5.95;;;;;10.00;99084.00;;;;5031945;28;20045;-62
2023/12/27 01:22:09;;;;;;;10.82;4.55;;;;;10.00;99079.00;;;;5032880;28;20060;-62
2023/12/27 01:24:36;;;;;;;9.60;3.92;;;;;10.00;99074.00;;;;5032510;28;20053;-62
2023/12/27 01:27:04;;;;;;;8.82;4.25;;;;;10.00;99074.00;;;;5032874;28;20091;-62
2023/12/27 01:29:30;;;;;;;6.13;3.50;;;;;10.00;99071.00;;;;5031567;28;20414;-62
2023/12/27 01:31:57;;;;;;;6.35;3.83;;;;;10.00;99076.00;;;;5032917;28;20045;-62
2023/12/27 01:34:24;;;;;;;7.30;4.03;;;;;10.00;99069.00;;;;5031020;28;20053;-64
2023/12/27 01:36:51;;;;;;;8.45;4.40;;;;;10.00;99068.00;;;;5031387;28;20048;-62
2023/12/27 01:39:17;;;;;;;6.80;3.55;;;;;10.00;99071.00;;;;5032793;28;20388;-61
2023/12/27 01:41:44;;;;;;;8.07;3.70;;;;;10.00;99073.00;;;;5031276;28;20050;-63
2023/12/27 01:44:11;;;;;;;7.63;3.78;;;;;10.10;99075.00;;;;5030891;28;20049;-64
2023/12/27 01:46:38;;;;;;;10.82;4.15;;;;;10.00;99068.00;;;;5032366;28;20145;-63
2023/12/27 01:49:05;;;;;;;6.43;3.15;;;;;10.00;99073.00;;;;5031232;28;20054;-64
2023/12/27 01:51:32;;;;;;;8.93;3.67;;;;;10.10;99068.00;;;;5031121;28;20099;-65
2023/12/27 01:54:02;;;;;;;8.40;3.25;;;;;10.10;99069.00;;;;5031843;28;20501;-64
2023/12/27 01:56:29;;;;;;;12.35;3.47;;;;;10.00;99080.00;;;;5031066;28;20046;-64
2023/12/27 01:58:57;;;;;;;5.97;3.10;;;;;10.00;99071.00;;;;5031170;28;20049;-65
2023/12/27 02:01:24;;;;;;;6.68;2.85;;;;;10.00;99081.00;;;;5014851;28;20052;-62
2023/12/27 02:03:51;;;;;;;8.00;3.67;;;;;10.00;99077.00;;;;5030412;28;20144;-64
2023/12/27 02:06:19;;;;;;;6.65;3.33;;;;;10.00;99075.00;;;;5031183;28;20414;-64
2023/12/27 02:08:45;;;;;;;6.82;3.00;;;;;10.10;99080.00;;;;5030880;28;20053;-64
2023/12/27 02:11:12;;;;;;;10.40;3.47;;;;;10.10;99077.00;;;;5032300;28;20037;-65
2023/12/27 02:13:41;;;;;;;5.30;3.25;;;;;10.10;99071.00;;;;5031631;28;20042;-65
2023/12/27 02:16:08;;;;;;;6.53;3.00;;;;;10.20;99077.00;;;;5014647;28;20049;-65
2023/12/27 02:18:36;;;;;;;7.68;3.17;;;;;10.20;99070.00;;;;5030726;28;20060;-63
2023/12/27 02:21:04;;;;;;;7.25;3.35;;;;;10.20;99077.00;;;;5030912;28;20114;-64
2023/12/27 02:23:33;;;;;;;5.30;3.20;;;;;10.30;99069.00;;;;5031181;28;20041;-65
2023/12/27 02:26:01;;;;;;;8.98;4.20;;;;;10.30;99061.00;;;;5030804;28;20141;-64
2023/12/27 02:28:29;;;;;;;6.28;3.17;;;;;10.30;99066.00;;;;5030739;28;20138;-65
2023/12/27 02:30:56;;;;;;;6.82;3.60;;;;;10.30;99053.00;;;;5030567;28;20510;-64
2023/12/27 02:33:22;;;;;;;10.68;3.85;;;;;10.20;99050.00;;;;5031615;28;20051;-65
2023/12/27 02:35:50;;;;;;;6.95;3.30;;;;;10.20;99053.00;;;;5030564;28;20049;-65
2023/12/27 02:38:17;;;;;;;7.03;3.33;;;;;10.20;99052.00;;;;5030670;28;20049;-65
2023/12/27 02:40:44;;;;;;;8.13;2.83;;;;;10.30;99041.00;;;;5030699;28;20099;-64
2023/12/27 02:43:10;;;;;;;5.18;2.90;;;;;10.20;99032.00;;;;5031729;28;20107;-64
2023/12/27 02:45:37;;;;;;;6.78;3.05;;;;;10.20;99035.00;;;;5029811;28;20537;-64
2023/12/27 02:48:04;;;;;;;7.78;3.65;;;;;10.20;99033.00;;;;5014137;28;20041;-64
2023/12/27 02:50:31;;;;;;;6.53;3.10;;;;;10.20;99040.00;;;;5014479;28;20053;-64
2023/12/27 02:52:57;;;;;;;7.20;3.00;;;;;10.20;99029.00;;;;5031887;28;20107;-64
2023/12/27 02:55:24;;;;;;;8.85;3.22;;;;;10.20;99032.00;;;;5013738;28;20054;-62
2023/12/27 02:57:50;;;;;;;3.88;2.85;;;;;10.20;99028.00;;;;5030418;28;20072;-64
2023/12/27 03:00:17;;;;;;;6.93;3.42;;;;;10.20;99033.00;;;;5031740;28;20132;-64
2023/12/27 03:02:44;;;;;;;8.75;3.10;;;;;10.20;99030.00;;;;5031625;28;20045;-64
2023/12/27 03:05:11;;;;;;;6.95;3.80;;;;;10.20;99021.00;;;;5029889;28;20096;-64
2023/12/27 03:07:38;;;;;;;13.68;6.82;;;;;10.20;99017.00;;;;5031515;28;20124;-63
2023/12/27 03:10:05;;;;;;;10.88;7.10;;;;;10.20;99018.00;;;;5030379;28;20049;-63
2023/12/27 03:12:32;;;;;;;9.07;4.63;;;;;10.20;99014.00;;;;5030373;28;20068;-64
2023/12/27 03:14:59;;;;;;;10.30;5.97;;;;;10.20;99025.00;;;;5030980;28;20045;-63
2023/12/27 03:17:25;;;;;;;4.32;2.65;;;;;10.20;99015.00;;;;5031559;28;20101;-64
2023/12/27 03:19:52;;;;;;;5.25;2.90;;;;;10.20;99008.00;;;;5030309;28;20068;-64
2023/12/27 03:22:19;;;;;;;4.97;3.30;;;;;10.20;99003.00;;;;5031658;28;20464;-64
2023/12/27 03:24:45;;;;;;;4.55;2.50;;;;;10.20;99001.00;;;;5030822;28;20508;-63
2023/12/27 03:27:12;;;;;;;6.45;3.95;;;;;10.20;98998.00;;;;5029980;28;20046;-64
2023/12/27 03:29:38;;;;;;;13.35;8.45;;;;;10.30;98998.00;;;;5030130;28;20045;-65
2023/12/27 03:32:07;;;;;;;11.63;7.53;;;;;10.20;98995.00;;;;5030276;28;20041;-64
2023/12/27 03:34:33;;;;;;;13.27;8.32;;;;;10.20;98996.00;;;;5030967;28;20061;-63
2023/12/27 03:37:00;;;;;;;8.25;5.00;;;;;10.20;98987.00;;;;5033681;28;20076;-64
2023/12/27 03:39:27;;;;;;;6.55;4.10;;;;;10.20;98997.00;;;;5033663;28;20053;-64
2023/12/27 03:41:54;;;;;;;7.63;3.70;;;;;10.20;98992.00;;;;5034829;28;20049;-64
2023/12/27 03:44:20;;;;;;;7.28;3.80;;;;;10.10;98984.00;;;;5033060;28;20077;-64
2023/12/27 03:46:47;;;;;;;6.50;3.00;;;;;10.00;98991.00;;;;5034715;28;20068;-64
2023/12/27 03:49:13;;;;;;;6.65;3.10;;;;;10.00;98987.00;;;;5034785;28;20068;-64
2023/12/27 03:51:40;;;;;;;6.05;2.95;;;;;10.00;98984.00;;;;5034863;28;20390;-63
2023/12/27 03:54:07;;;;;;;8.25;3.47;;;;;10.00;98983.00;;;;5033080;28;20056;-63
2023/12/27 03:56:33;;;;;;;7.18;4.18;;;;;9.90;98987.00;;;;5034443;28;20048;-64
2023/12/27 03:59:05;;;;;;;5.85;3.42;;;;;10.00;98989.00;;;;5034610;28;20168;-62
2023/12/27 04:01:32;;;;;;;8.88;3.55;;;;;10.00;98992.00;;;;5034750;28;20045;-64
2023/12/27 04:03:58;;;;;;;5.60;3.72;;;;;10.00;98986.00;;;;5034095;28;20052;-64
2023/12/27 04:06:25;;;;;;;8.82;4.10;;;;;10.10;98982.00;;;;5016798;28;20046;-62
2023/12/27 04:08:53;;;;;;;7.30;3.47;;;;;10.10;98982.00;;;;5034328;28;20045;-65
2023/12/27 04:11:19;;;;;;;6.95;3.88;;;;;10.10;98978.00;;;;5033050;28;20509;-62
2023/12/27 04:13:46;;;;;;;4.97;2.92;;;;;10.10;98980.00;;;;5032583;28;20088;-62
2023/12/27 04:16:12;;;;;;;5.45;3.60;;;;;10.10;98982.00;;;;5033124;28;20048;-64
2023/12/27 04:18:39;;;;;;;7.90;3.05;;;;;10.10;98992.00;;;;5032772;28;20076;-63
2023/12/27 04:21:06;;;;;;;6.32;3.33;;;;;10.10;98985.00;;;;5032871;28;20045;-62
2023/12/27 04:23:32;;;;;;;8.60;3.88;;;;;10.10;98993.00;;;;5032153;28;20125;-62
2023/12/27 04:25:59;;;;;;;6.00;3.67;;;;;10.10;98996.00;;;;5033946;28;20509;-63
2023/12/27 04:28:25;;;;;;;5.90;3.67;;;;;10.10;98990.00;;;;5033994;28;20120;-63
2023/12/27 04:30:52;;;;;;;7.50;3.45;;;;;10.10;98988.00;;;;5016327;28;20049;-63
2023/12/27 04:33:19;;;;;;;8.30;3.95;;;;;10.10;98991.00;;;;5033860;28;20037;-65
2023/12/27 04:35:46;;;;;;;6.80;3.60;;;;;10.20;98992.00;;;;5031987;28;20048;-63
2023/12/27 04:38:13;;;;;;;8.77;3.90;;;;;10.10;98994.00;;;;5033702;28;20108;-62
2023/12/27 04:40:47;;;;;;;6.22;3.80;;;;;10.20;99000.00;;;;5032295;28;20045;-63
2023/12/27 04:43:14;;;;;;;8.18;4.00;;;;;10.20;98998.00;;;;5032381;28;20047;-63
2023/12/27 04:45:41;;;;;;;5.55;3.17;;;;;10.10;98988.00;;;;5032939;28;20498;-63
2023/12/27 04:48:08;;;;;;;7.03;3.65;;;;;10.20;98972.00;;;;5031948;28;20049;-62
2023/12/27 04:50:35;;;;;;;13.05;4.55;;;;;10.10;98972.00;;;;5032214;28;20123;-63
2023/12/27 04:53:02;;;;;;;7.90;3.90;;;;;10.10;98962.00;;;;5034417;28;20049;-63
2023/12/27 04:55:29;;;;;;;6.57;3.78;;;;;10.10;98957.00;;;;5015931;28;20151;-62
2023/12/27 04:57:55;;;;;;;9.23;3.50;;;;;10.10;98961.00;;;;5034057;28;20120;-61
2023/12/27 05:00:23;;;;;;;6.78;3.45;;;;;10.10;98950.00;;;;5033363;28;20049;-63
2023/12/27 05:02:50;;;;;;;5.88;3.72;;;;;10.20;98965.00;;;;5032085;28;20056;-62
2023/12/27 05:05:17;;;;;;;7.65;3.72;;;;;10.20;98968.00;;;;5031325;28;20045;-62
2023/12/27 05:07:44;;;;;;;6.10;3.55;;;;;10.20;98960.00;;;;5031790;28;20045;-62
2023/12/27 05:10:11;;;;;;;8.00;3.42;;;;;10.20;98964.00;;;;5031937;28;20461;-63
2023/12/27 05:12:37;;;;;;;6.20;3.67;;;;;10.30;98952.00;;;;5033124;28;20453;-63
2023/12/27 05:15:05;;;;;;;6.30;3.47;;;;;10.30;98963.00;;;;5032496;28;20120;-64
2023/12/27 05:17:31;;;;;;;7.28;3.90;;;;;10.40;98948.00;;;;5032960;28;20038;-62
2023/12/27 05:19:58;;;;;;;6.05;3.05;;;;;10.30;98944.00;;;;5032918;28;20124;-62
2023/12/27 05:22:27;;;;;;;8.60;3.45;;;;;10.30;98941.00;;;;5032899;28;20076;-63
2023/12/27 05:24:53;;;;;;;4.40;2.55;;;;;10.20;98943.00;;;;5032189;28;20052;-63
2023/12/27 05:27:20;;;;;;;4.97;3.25;;;;;10.30;98948.00;;;;5031592;28;20521;-63
2023/12/27 05:29:47;;;;;;;5.22;2.60;;;;;10.30;98948.00;;;;5032821;28;20049;-63
2023/12/27 05:32:13;;;;;;;3.38;2.45;;;;;10.20;98943.00;;;;5032796;28;20072;-62
2023/12/27 05:34:40;;;;;;;4.72;2.58;;;;;10.20;98940.00;;;;5032129;28;20503;-62
2023/12/27 05:37:06;;;;;;;4.85;2.65;;;;;10.20;98940.00;;;;5031460;28;20042;-62
2023/12/27 05:39:33;;;;;;;3.65;2.90;;;;;10.10;98947.00;;;;5031309;28;20085;-63
2023/12/27 05:42:00;;;;;;;4.47;2.63;;;;;10.10;98958.00;;;;5032567;28;20079;-63
2023/12/27 05:44:26;;;;;;;3.15;2.20;;;;;10.10;98947.00;;;;5031882;28;20048;-63
2023/12/27 05:46:53;;;;;;;3.67;2.70;;;;;10.00;98949.00;;;;5032358;28;20498;-63
2023/12/27 05:49:19;;;;;;;4.90;2.72;;;;;10.10;98964.00;;;;5032375;28;20120;-65
2023/12/27 05:51:46;;;;;;;5.93;2.78;;;;;10.10;98960.00;;;;5032334;28;20041;-63
2023/12/27 05:54:13;;;;;;;5.57;3.28;;;;;10.10;98968.00;;;;5031668;28;20046;-63
2023/12/27 05:56:40;;;;;;;5.43;2.67;;;;;10.00;98962.00;;;;5032244;28;20039;-61
2023/12/27 05:59:07;;;;;;;4.15;3.25;;;;;10.00;98958.00;;;;5031883;28;20044;-61
2023/12/27 06:01:34;;;;;;;6.05;2.95;;;;;10.00;98960.00;;;;5032220;28;20483;-63
2023/12/27 06:04:03;;;;;;;5.10;2.88;;;;;10.00;98963.00;;;;5031605;28;20521;-64
2023/12/27 06:06:30;;;;;;;4.47;2.78;;;;;9.90;98962.00;;;;5031845;28;20577;-63
2023/12/27 06:08:57;;;;;;;5.82;2.97;;;;;10.00;98968.00;;;;5032107;28;20045;-65
2023/12/27 06:11:23;;;;;;;11.48;4.18;;;;;10.00;98966.00;;;;5032225;28;20041;-65
2023/12/27 06:13:50;;;;;;;6.90;3.15;;;;;10.00;98968.00;;;;5031627;28;20487;-65
2023/12/27 06:16:16;;;;;;;7.63;3.08;;;;;10.00;98970.00;;;;5032150;28;20055;-65
2023/12/27 06:18:43;;;;;;;4.90;2.80;;;;;10.10;98968.00;;;;5032062;28;20041;-65
2023/12/27 06:21:10;;;;;;;5.07;2.72;;;;;10.20;98976.00;;;;5031996;28;20411;-63
2023/12/27 06:23:37;;;;;;;5.55;3.20;;;;;10.20;98963.00;;;;5031427;28;20049;-65
2023/12/27 06:26:05;;;;;;;7.00;3.33;;;;;10.10;98966.00;;;;5032171;28;20487;-65
2023/12/27 06:28:32;;;;;;;10.80;3.80;;;;;10.10;98966.00;;;;5031696;28;20116;-65
2023/12/27 06:30:59;;;;;;;4.75;3.05;;;;;10.10;98964.00;;;;5031946;28;20045;-65
2023/12/27 06:33:25;;;;;;;7.95;3.40;;;;;10.10;98963.00;;;;5031269;28;20042;-64
2023/12/27 06:35:52;;;;;;;6.20;3.10;;;;;10.10;98961.00;;;;5032061;28;20154;-64
2023/12/27 06:38:19;;;;;;;6.07;3.50;;;;;10.10;98968.00;;;;5030509;28;20045;-63
2023/12/27 06:40:45;;;;;;;6.43;3.50;;;;;10.00;98968.00;;;;5031861;28;20067;-61
2023/12/27 06:43:12;;;;;;;5.20;3.00;;;;;10.10;98959.00;;;;5030652;28;20048;-62
2023/12/27 06:45:38;;;;;;;6.72;3.50;;;;;10.10;98948.00;;;;5031354;28;20136;-62
2023/12/27 06:48:06;;;;;;;7.30;3.33;;;;;10.10;98949.00;;;;5031664;28;20152;-63
2023/12/27 06:50:32;;;;;;;6.68;3.80;;;;;10.10;98949.00;;;;5031764;28;20049;-62
2023/12/27 06:52:59;;;;;;;7.13;3.17;;;;;10.10;98949.00;;;;5031717;28;20084;-62
2023/12/27 06:55:25;;;;;;;7.13;3.10;;;;;10.10;98945.00;;;;5030949;28;20052;-63
2023/12/27 06:57:52;;;;;;;6.88;3.25;;;;;10.10;98948.00;;;;5030311;28;20045;-62
2023/12/27 07:00:19;;;;;;;7.68;3.40;;;;;10.00;98947.00;;;;5030496;28;20045;-62
2023/12/27 07:02:45;;;;;;;5.35;3.15;;;;;10.00;98962.00;;;;5031558;28;20533;-63
2023/12/27 07:05:12;;;;;;;8.15;3.60;;;;;10.10;98965.00;;;;5031048;28;20512;-63
2023/12/27 07:07:39;;;;;;;8.38;3.47;;;;;10.10;98967.00;;;;5030370;28;20050;-62
2023/12/27 07:10:06;;;;;;;5.60;3.50;;;;;10.20;98956.00;;;;5032487;28;20041;-64
2023/12/27 07:12:36;;;;;;;5.68;3.30;;;;;10.20;98945.00;;;;5035578;28;20484;-64
2023/12/27 07:15:02;;;;;;;7.10;3.45;;;;;10.20;98945.00;;;;5033726;28;20049;-62
2023/12/27 07:17:29;;;;;;;6.97;3.10;;;;;10.20;98960.00;;;;5035187;28;20201;-65
2023/12/27 07:19:56;;;;;;;5.97;2.97;;;;;10.10;98963.00;;;;5035454;28;20080;-65
2023/12/27 07:22:22;;;;;;;6.03;3.13;;;;;10.10;98966.00;;;;5035424;28;20114;-64
2023/12/27 07:24:49;;;;;;;9.50;4.30;;;;;10.10;98968.00;;;;5033265;28;20053;-62
2023/12/27 07:27:16;;;;;;;7.20;4.15;;;;;10.20;98968.00;;;;5035204;28;20045;-61
2023/12/27 07:29:42;;;;;;;7.60;3.60;;;;;10.20;98965.00;;;;5034043;28;20512;-62
2023/12/27 07:32:09;;;;;;;5.20;4.13;;;;;10.20;98961.00;;;;5035233;28;20045;-62
2023/12/27 07:34:35;;;;;;;9.82;5.28;;;;;10.20;98957.00;;;;5034648;28;20045;-61
2023/12/27 07:37:03;;;;;;;7.07;3.95;;;;;10.10;98942.00;;;;5034957;28;20497;-65
2023/12/27 07:39:32;;;;;;;5.25;3.08;;;;;10.20;98941.00;;;;5034932;28;20144;-63
2023/12/27 07:41:59;;;;;;;7.43;3.08;;;;;10.20;98942.00;;;;5034988;28;20045;-62
2023/12/27 07:44:27;;;;;;;4.97;3.17;;;;;10.20;98939.00;;;;5034307;28;20041;-64
2023/12/27 07:46:55;;;;;;;4.20;2.85;;;;;10.30;98932.00;;;;5034713;28;20076;-62
2023/12/27 07:49:23;;;;;;;7.03;3.38;;;;;10.30;98922.00;;;;5034699;28;20566;-63
2023/12/27 07:51:50;;;;;;;12.25;5.05;;;;;10.30;98927.00;;;;5034584;28;20045;-63
2023/12/27 07:54:16;;;;;;;7.80;3.97;;;;;10.30;98931.00;;;;5033931;28;20452;-62
2023/12/27 07:56:43;;;;;;;5.68;3.20;;;;;10.40;98932.00;;;;5034515;28;20103;-65
2023/12/27 07:59:10;;;;;;;6.47;3.35;;;;;10.40;98937.00;;;;5034554;28;20112;-63
2023/12/27 08:01:36;;;;;;;6.20;3.20;;;;;10.40;98921.00;;;;5033315;28;20056;-63
2023/12/27 08:04:03;;;;;;;9.10;5.07;;;;;10.50;98902.00;;;;5032645;28;20104;-63
2023/12/27 08:06:30;;;;;;;8.63;4.72;;;;;10.50;98881.00;;;;5034195;28;20041;-62
2023/12/27 08:08:56;;;;;;;6.53;3.88;;;;;10.50;98868.00;;;;5034806;28;20077;-62
2023/12/27 08:11:23;;;;;;;11.70;4.85;;;;;10.30;98855.00;;;;5034485;28;20526;-62
2023/12/27 08:13:50;;;;;;;9.55;5.10;;;;;10.20;98858.00;;;;5033828;28;20047;-61
2023/12/27 08:16:16;;;;;;;7.35;4.30;;;;;10.30;98876.00;;;;5034253;28;20060;-62
2023/12/27 08:18:43;;;;;;;8.32;4.65;;;;;10.40;98897.00;;;;5033252;28;20041;-62
2023/12/27 08:21:10;;;;;;;6.45;3.75;;;;;10.60;98897.00;;;;5033984;28;20054;-63
2023/12/27 08:23:37;;;;;;;4.05;3.33;;;;;10.70;98898.00;;;;5033754;28;20045;-62
2023/12/27 08:26:06;;;;;;;6.43;3.20;;;;;10.80;98889.00;;;;5034168;28;20117;-62
2023/12/27 08:28:34;;;;;;;5.75;3.60;;;;;10.80;98872.00;;;;5033802;28;20140;-61
2023/12/27 08:31:01;;;;;;;10.27;3.63;;;;;10.90;98876.00;;;;5033999;28;20414;-62
2023/12/27 08:33:30;;;;;;;6.93;3.53;;;;;10.90;98877.00;;;;5032035;28;20100;-61
2023/12/27 08:35:57;;;;;;;4.90;3.20;;;;;11.00;98871.00;;;;5033882;28;20049;-61
2023/12/27 08:38:25;;;;;;;6.35;3.40;;;;;11.00;98882.00;;;;5032769;28;20038;-61
2023/12/27 08:40:52;;;;;;;5.63;3.50;;;;;10.90;98876.00;;;;5033981;28;20626;-61
2023/12/27 08:43:19;;;;;;;5.32;2.78;;;;;11.00;98884.00;;;;5033696;28;20038;-62
2023/12/27 08:45:48;;;;;;;5.43;2.53;;;;;11.00;98893.00;;;;5032112;28;20457;-62
2023/12/27 08:48:15;;;;;;;5.00;2.90;;;;;11.00;98911.00;;;;5032107;28;20045;-62
2023/12/27 08:50:43;;;;;;;4.93;2.95;;;;;10.90;98911.00;;;;5033506;28;20064;-60
2023/12/27 08:53:11;;;;;;;4.15;2.70;;;;;10.90;98905.00;;;;5032554;28;20405;-61
2023/12/27 08:55:38;;;;;;;3.83;2.85;;;;;11.00;98896.00;;;;5033005;28;20120;-60
2023/12/27 08:58:05;;;;;;;4.22;2.65;;;;;11.10;98901.00;;;;5032363;28;20111;-61
2023/12/27 09:00:32;;;;;;;3.33;2.70;;;;;11.10;98909.00;;;;5032354;28;20152;-63
2023/12/27 09:02:58;;;;;;;4.07;2.78;;;;;11.10;98913.00;;;;5033541;28;20048;-61
2023/12/27 09:05:25;;;;;;;4.40;2.92;;;;;11.10;98916.00;;;;5031713;28;20128;-61
2023/12/27 09:07:52;;;;;;;4.68;4.25;;;;;11.10;98904.00;;;;5032166;28;20049;-61
2023/12/27 09:10:18;;;;;;;6.90;4.03;;;;;11.10;98891.00;;;;5032026;28;20052;-61
2023/12/27 09:12:45;;;;;;;4.63;2.97;;;;;11.20;98877.00;;;;5032028;28;20518;-63
2023/12/27 09:15:13;;;;;;;4.10;2.72;;;;;11.30;98871.00;;;;5031136;28;20080;-62
2023/12/27 09:17:40;;;;;;;4.40;2.47;;;;;11.40;98873.00;;;;5031736;28;20100;-62
2023/12/27 09:20:07;;;;;;;4.78;3.35;;;;;11.60;98866.00;;;;5031863;28;20046;-62
2023/12/27 09:22:35;;;;;;;3.25;2.40;;;;;11.60;98863.00;;;;5031688;28;20136;-62
2023/12/27 09:25:03;;;;;;;3.45;2.00;;;;;11.60;98870.00;;;;5032335;28;20533;-64
2023/12/27 09:27:30;;;;;;;2.47;1.90;;;;;11.60;98868.00;;;;5033250;28;20049;-63
2023/12/27 09:29:57;;;;;;;3.47;2.10;;;;;11.60;98862.00;;;;5032798;28;20053;-62
2023/12/27 09:32:23;;;;;;;5.05;2.30;;;;;11.60;98856.00;;;;5032598;28;20044;-62
2023/12/27 09:34:54;;;;;;;2.83;1.67;;;;;11.60;98861.00;;;;5030683;28;20049;-62
2023/12/27 09:37:20;;;;;;;2.42;1.42;;;;;11.70;98871.00;;;;5031606;28;20501;-62
2023/12/27 09:39:47;;;;;;;5.75;1.73;;;;;11.80;98867.00;;;;5033168;28;20047;-62
2023/12/27 09:42:14;;;;;;;3.70;1.60;;;;;11.90;98859.00;;;;5032653;28;20049;-62
2023/12/27 09:44:43;;;;;;;3.50;1.83;;;;;12.00;98854.00;;;;5032012;28;20064;-62
2023/12/27 09:47:11;;;;;;;3.75;2.05;;;;;12.10;98858.00;;;;5033041;28;20124;-61
2023/12/27 09:49:38;;;;;;;5.85;2.22;;;;;12.20;98858.00;;;;5014890;28;20050;-62
2023/12/27 09:52:07;;;;;;;3.70;1.65;;;;;12.20;98870.00;;;;5032645;28;20384;-62
2023/12/27 09:54:33;;;;;;;4.47;2.30;;;;;12.20;98859.00;;;;5031840;28;20048;-62
2023/12/27 09:57:01;;;;;;;4.68;2.10;;;;;12.10;98851.00;;;;5031042;28;20152;-61
2023/12/27 09:59:33;;;;;;;4.90;2.33;;;;;12.00;98858.00;;;;5031213;28;20041;-62
2023/12/27 10:02:02;;;;;;;3.08;1.75;;;;;11.90;98864.00;;;;5015624;28;20045;-62
2023/12/27 10:04:56;;;;;;;4.70;2.33;;;;;11.90;98852.00;;;;5034415;28;20151;-62
2023/12/27 10:07:24;;;;;;;2.95;2.33;;;;;11.80;98853.00;;;;5034728;28;20072;-64
2023/12/27 10:09:52;;;;;;;5.68;1.77;;;;;11.90;98839.00;;;;5033993;28;20104;-62
2023/12/27 10:12:20;;;;;;;5.50;1.88;;;;;11.90;98858.00;;;;5034180;28;20052;-63
2023/12/27 10:14:50;;;;;;;1.92;1.63;;;;;11.90;98842.00;;;;5034601;28;20079;-62
2023/12/27 10:17:17;;;;;;;6.40;2.42;;;;;11.90;98841.00;;;;5034652;28;20560;-63
2023/12/27 10:19:45;;;;;;;4.10;2.50;;;;;11.90;98833.00;;;;5034605;28;20479;-62
2023/12/27 10:22:12;;;;;;;4.07;2.30;;;;;11.90;98828.00;;;;5034794;28;20045;-62
2023/12/27 10:24:40;;;;;;;3.35;1.77;;;;;12.00;98838.00;;;;5033108;28;20128;-62
2023/12/27 10:27:08;;;;;;;4.35;2.10;;;;;12.00;98826.00;;;;5033744;28;20041;-62
2023/12/27 10:29:36;;;;;;;5.80;2.28;;;;;12.00;98825.00;;;;5033876;28;20047;-63
2023/12/27 10:32:03;;;;;;;5.65;2.15;;;;;11.90;98818.00;;;;5030909;28;20053;-61
2023/12/27 10:34:30;;;;;;;6.53;2.17;;;;;11.90;98808.00;;;;5031241;28;20080;-63
2023/12/27 10:36:58;;;;;;;6.43;2.45;;;;;11.80;98820.00;;;;5031886;28;20088;-62
2023/12/27 10:39:25;;;;;;;4.40;2.25;;;;;11.60;98814.00;;;;5031951;28;20441;-62
2023/12/27 10:41:52;;;;;;;5.65;2.00;;;;;11.50;98804.00;;;;5030848;28;20418;-63
2023/12/27 10:44:20;;;;;;;8.05;2.60;;;;;11.40;98801.00;;;;5032658;28;20498;-61
2023/12/27 10:46:48;;;;;;;4.57;2.20;;;;;11.40;98801.00;;;;5035895;28;20038;-63
2023/12/27 10:49:16;;;;;;;4.63;3.00;;;;;11.40;98796.00;;;;5035658;28;20034;-63
2023/12/27 10:51:47;;;;;;;4.22;2.70;;;;;11.40;98778.00;;;;5035834;28;20049;-62
2023/12/27 10:54:13;;;;;;;3.88;2.30;;;;;11.50;98765.00;;;;5035446;28;20042;-61
2023/12/27 10:56:41;;;;;;;6.70;2.10;;;;;11.50;98769.00;;;;5035785;28;20046;-63
2023/12/27 10:59:09;;;;;;;6.35;3.13;;;;;11.50;98768.00;;;;5035737;28;20041;-62
2023/12/27 11:01:39;;;;;;;4.65;2.53;;;;;11.60;98765.00;;;;5035565;28;20457;-62
2023/12/27 11:04:07;;;;;;;3.10;2.10;;;;;11.60;98755.00;;;;5034988;28;20050;-61
2023/12/27 11:06:39;;;;;;;6.88;3.22;;;;;11.80;98761.00;;;;5033896;28;20483;-64
2023/12/27 11:09:07;;;;;;;4.28;2.55;;;;;11.70;98755.00;;;;5034350;28;20045;-63
2023/12/27 11:11:38;;;;;;;3.85;2.20;;;;;11.60;98754.00;;;;5035442;28;20084;-62
2023/12/27 11:14:08;;;;;;;5.45;2.22;;;;;11.70;98753.00;;;;5033527;28;20050;-64
2023/12/27 11:16:37;;;;;;;5.15;2.60;;;;;11.70;98747.00;;;;5035332;28;20045;-63
2023/12/27 11:19:08;;;;;;;4.22;2.05;;;;;11.80;98752.00;;;;5035516;28;20490;-65
2023/12/27 11:21:37;;;;;;;6.07;2.40;;;;;11.80;98739.00;;;;5035170;28;20045;-64
2023/12/27 11:24:04;;;;;;;4.32;2.40;;;;;11.80;98740.00;;;;5034589;28;20425;-64
2023/12/27 11:26:36;;;;;;;6.13;2.28;;;;;11.80;98739.00;;;;5035013;28;20569;-65
2023/12/27 11:29:12;;;;;;;5.35;2.30;;;;;11.90;98744.00;;;;5035144;28;20069;-65
2023/12/27 11:31:39;;;;;;;5.05;2.58;;;;;12.00;98746.00;;;;5033944;28;20043;-64
2023/12/27 11:34:06;;;;;;;6.15;2.60;;;;;12.00;98732.00;;;;5034364;28;20544;-65
2023/12/27 11:36:34;;;;;;;4.25;2.33;;;;;11.90;98713.00;;;;5034934;28;20076;-63
2023/12/27 11:39:16;;;;;;;6.85;2.50;;;;;11.90;98724.00;;;;5034820;28;20069;-64
2023/12/27 11:41:43;;;;;;;6.85;2.33;;;;;12.00;98719.00;;;;5034954;28;20465;-65
2023/12/27 11:44:09;;;;;;;4.97;2.25;;;;;12.00;98711.00;;;;5034227;28;20037;-64
2023/12/27 11:46:36;;;;;;;6.38;2.55;;;;;12.00;98720.00;;;;5034695;28;20077;-65
2023/12/27 11:49:03;;;;;;;5.20;2.20;;;;;12.00;98706.00;;;;5034624;28;20045;-65
2023/12/27 11:51:36;;;;;;;6.80;3.15;;;;;12.00;98698.00;;;;5034611;28;20498;-65
2023/12/27 11:54:06;;;;;;;6.60;2.40;;;;;12.00;98698.00;;;;5034070;28;20051;-65
2023/12/27 11:56:34;;;;;;;7.10;3.88;;;;;12.00;98687.00;;;;5033686;28;20441;-65
2023/12/27 11:59:06;;;;;;;6.43;2.95;;;;;12.00;98685.00;;;;5034691;28;20072;-65
2023/12/27 12:01:35;;;;;;;5.38;2.75;;;;;11.90;98684.00;;;;5034452;28;20037;-64
2023/12/27 12:04:24;;;;;;;5.47;2.38;;;;;11.90;98670.00;;;;5033790;28;20045;-64
2023/12/27 12:06:54;;;;;;;7.45;2.55;;;;;12.00;98663.00;;;;5034495;28;20442;-65
2023/12/27 12:09:35;;;;;;;3.40;2.63;;;;;12.00;98652.00;;;;5034272;28;20052;-65
2023/12/27 12:12:15;;;;;;;7.22;3.03;;;;;12.00;98667.00;;;;5034452;28;20490;-64
2023/12/27 12:14:42;;;;;;;7.07;2.50;;;;;11.90;98657.00;;;;5033638;28;20450;-64
2023/12/27 12:17:10;;;;;;;4.65;2.45;;;;;11.90;98649.00;;;;5034113;28;20048;-65
2023/12/27 12:19:37;;;;;;;5.28;2.33;;;;;11.90;98633.00;;;;5032758;28;20057;-65